Time,TemperatureF,DewpointF,PressureIn,WindDirection,WindDirectionDegrees,WindSpeedMPH,WindSpeedGustMPH,Humidity,HourlyPrecipIn,Conditions,Clouds,dailyrainin,SoftwareType,DateUTC
2013-09-05 00:00:00,59.8,52.6,30.22,NE,39,0.0,0.0,77,0.00,,,0.00,Wunderground v.1.15,2013-09-05 05:00:00,
2013-09-05 00:30:00,59.0,52.8,30.22,NE,39,0.0,0.0,80,0.00,,,0.00,Wunderground v.1.15,2013-09-05 05:30:00,
2013-09-05 01:00:00,57.9,52.4,30.23,NE,39,0.0,0.0,82,0.00,,,0.00,Wunderground v.1.15,2013-09-05 06:00:00,
2013-09-05 01:30:00,56.9,51.8,30.24,NE,39,0.0,0.0,83,0.00,,,0.00,Wunderground v.1.15,2013-09-05 06:30:00,
2013-09-05 02:00:00,55.7,51.3,30.24,NE,39,0.0,0.0,85,0.00,,,0.00,Wunderground v.1.15,2013-09-05 07:00:00,
2013-09-05 02:30:00,54.9,50.8,30.23,NE,39,0.0,0.0,86,0.00,,,0.00,Wunderground v.1.15,2013-09-05 07:30:00,
2013-09-05 03:00:00,54.5,51.0,30.23,NE,39,0.0,0.0,88,0.00,,,0.00,Wunderground v.1.15,2013-09-05 08:00:00,
2013-09-05 03:30:00,54.3,51.1,30.23,NE,39,0.0,0.0,89,0.00,,,0.00,Wunderground v.1.15,2013-09-05 08:30:00,
2013-09-05 04:00:00,54.2,51.3,30.24,NE,39,0.0,0.0,90,0.00,,,0.00,Wunderground v.1.15,2013-09-05 09:00:00,
2013-09-05 04:30:00,54.1,51.5,30.25,NE,39,0.0,0.0,91,0.00,,,0.00,Wunderground v.1.15,2013-09-05 09:30:00,
2013-09-05 05:00:00,53.5,50.9,30.25,NE,39,0.0,0.0,91,0.00,,,0.00,Wunderground v.1.15,2013-09-05 10:00:00,
2013-09-05 05:30:00,52.9,50.3,30.25,NE,39,0.0,0.0,91,0.00,,,0.00,Wunderground v.1.15,2013-09-05 10:30:00,
2013-09-05 06:00:00,52.7,50.4,30.26,NE,39,0.0,0.0,92,0.00,,,0.00,Wunderground v.1.15,2013-09-05 11:00:00,
2013-09-05 06:30:00,52.9,50.6,30.27,NE,39,0.0,0.0,92,0.00,,,0.00,Wunderground v.1.15,2013-09-05 11:30:00,
2013-09-05 07:00:00,52.9,50.6,30.28,NE,39,0.0,0.0,92,0.00,,,0.00,Wunderground v.1.15,2013-09-05 12:00:00,
2013-09-05 07:30:00,52.9,50.9,30.27,NE,39,0.0,0.0,93,0.00,,,0.00,Wunderground v.1.15,2013-09-05 12:30:00,
2013-09-05 08:00:00,53.4,51.7,30.28,NE,39,0.0,0.0,94,0.00,,,0.00,Wunderground v.1.15,2013-09-05 13:00:00,
2013-09-05 08:30:00,55.8,54.4,30.27,NE,49,0.0,0.0,95,0.00,,,0.00,Wunderground v.1.15,2013-09-05 13:30:00,
2013-09-05 09:00:00,57.2,55.2,30.27,SSE,155,0.0,0.0,93,0.00,,,0.00,Wunderground v.1.15,2013-09-05 14:00:00,
2013-09-05 09:30:00,60.1,53.9,30.27,SSE,159,0.0,0.0,80,0.00,,,0.00,Wunderground v.1.15,2013-09-05 14:30:00,
2013-09-05 10:00:00,62.7,54.7,30.27,SSE,159,0.0,0.0,75,0.00,,,0.00,Wunderground v.1.15,2013-09-05 15:00:00,
2013-09-05 10:30:00,65.2,53.6,30.27,SSW,195,0.0,0.0,66,0.00,,,0.00,Wunderground v.1.15,2013-09-05 15:30:00,
2013-09-05 11:00:00,66.5,55.2,30.27,SSW,192,0.0,0.0,67,0.00,,,0.00,Wunderground v.1.15,2013-09-05 16:00:00,
2013-09-05 11:30:00,68.1,54.6,30.27,SSE,167,1.0,1.0,62,0.00,,,0.00,Wunderground v.1.15,2013-09-05 16:30:00,
2013-09-05 12:00:00,71.1,56.0,30.27,SSE,164,1.0,1.0,59,0.00,,,0.00,Wunderground v.1.15,2013-09-05 17:00:00,
2013-09-05 12:30:00,73.4,56.7,30.26,SSE,167,0.0,0.0,56,0.00,,,0.00,Wunderground v.1.15,2013-09-05 17:30:00,
2013-09-05 13:00:00,76.9,56.8,30.25,SE,128,1.0,1.0,50,0.00,,,0.00,Wunderground v.1.15,2013-09-05 18:00:00,
2013-09-05 13:30:00,78.0,57.9,30.24,WSW,252,0.0,1.0,50,0.00,,,0.00,Wunderground v.1.15,2013-09-05 18:30:00,
2013-09-05 14:00:00,78.3,57.6,30.23,SSW,210,0.0,0.0,49,0.00,,,0.00,Wunderground v.1.15,2013-09-05 19:00:00,
2013-09-05 14:30:00,80.3,58.8,30.22,North,355,0.0,0.0,48,0.00,,,0.00,Wunderground v.1.15,2013-09-05 19:30:00,
2013-09-05 15:00:00,79.6,56.4,30.21,SSW,200,0.0,0.0,45,0.00,,,0.00,Wunderground v.1.15,2013-09-05 20:00:00,
2013-09-05 15:30:00,79.5,56.9,30.19,SSW,199,0.0,0.0,46,0.00,,,0.00,Wunderground v.1.15,2013-09-05 20:30:00,
2013-09-05 16:00:00,77.6,57.5,30.19,SSW,199,0.0,1.0,50,0.00,,,0.00,Wunderground v.1.15,2013-09-05 21:00:00,
2013-09-05 16:30:00,78.2,57.5,30.17,SSW,199,0.0,0.0,49,0.00,,,0.00,Wunderground v.1.15,2013-09-05 21:30:00,
2013-09-05 17:00:00,77.8,57.7,30.16,SSW,199,0.0,1.0,50,0.00,,,0.00,Wunderground v.1.15,2013-09-05 22:00:00,
2013-09-05 17:30:00,77.0,60.1,30.15,SSW,194,0.0,0.0,56,0.00,,,0.00,Wunderground v.1.15,2013-09-05 22:30:00,
2013-09-05 18:00:00,74.4,61.4,30.15,SSW,194,0.0,0.0,64,0.00,,,0.00,Wunderground v.1.15,2013-09-05 23:00:00,
2013-09-05 18:30:00,72.9,61.7,30.14,SSW,194,0.0,0.0,68,0.00,,,0.00,Wunderground v.1.15,2013-09-05 23:30:00,
2013-09-05 19:00:00,71.6,61.3,30.14,SSW,194,0.0,0.0,70,0.00,,,0.00,Wunderground v.1.15,2013-09-06 00:00:00,
2013-09-05 19:30:00,69.9,60.8,30.13,SSW,194,0.0,0.0,73,0.00,,,0.00,Wunderground v.1.15,2013-09-06 00:30:00,
2013-09-05 20:00:00,68.1,59.9,30.13,SSW,194,0.0,0.0,75,0.00,,,0.00,Wunderground v.1.15,2013-09-06 01:00:00,
2013-09-05 20:30:00,66.3,58.5,30.13,SSW,194,0.0,0.0,76,0.00,,,0.00,Wunderground v.1.15,2013-09-06 01:30:00,
2013-09-05 21:00:00,65.2,58.5,30.14,SSW,194,0.0,0.0,79,0.00,,,0.00,Wunderground v.1.15,2013-09-06 02:00:00,
2013-09-05 21:30:00,64.5,58.9,30.14,SSW,194,0.0,0.0,82,0.00,,,0.00,Wunderground v.1.15,2013-09-06 02:30:00,
2013-09-05 22:00:00,64.3,59.0,30.13,SSW,194,0.0,0.0,83,0.00,,,0.00,Wunderground v.1.15,2013-09-06 03:00:00,
2013-09-05 22:30:00,64.2,59.6,30.13,SSW,194,0.0,0.0,85,0.00,,,0.00,Wunderground v.1.15,2013-09-06 03:30:00,
2013-09-05 23:00:00,64.8,60.2,30.12,SSW,192,0.0,0.0,85,0.00,,,0.00,Wunderground v.1.15,2013-09-06 04:00:00,
2013-09-05 23:30:00,65.5,60.9,30.12,SSW,192,0.0,0.0,85,0.00,,,0.00,Wunderground v.1.15,2013-09-06 04:30:00,